KAFK

Nebraska City Municipal Airport

Nebraska City, Nebraska, USA
METAR KAFK 140835Z AUTO 36006KT 10SM CLR M02/M03 A3023 RMK AO2 T10171035
Observed Flight Rules
Dec-14 @ 08:35 UTC (7 minutes ago) Visual Flight Rules
Wind Visibility Clouds
360° at 6 knots 10 miles
  • Clear skies
Temperatures Readings
Current -2°C / 28°F
Dewpoint -4°C / 25°F
Humidity 86%
Altimeter 30.23" Hg
Pressure 1024 hPa
Elevation 354
METAR KAFK 140835Z AUTO 36006KT 10SM CLR M02/M03 A3023 RMK AO2 T10171035
Observed Flight Rules
Dec-14 @ 08:35 UTC
(7 minutes ago)
VFR
Wind Visibility
360° at 6 knots 10 miles
Clouds
  • Clear skies
Temperature Dewpoint
-2°C / 28°F -4°C / 25°F
Humidity Altimeter Pressure
86% 30.23" Hg 1024 hPa